FR-0206 weather

Centre de Secours de Courchevel Heliport
Courchevel, Auvergne-Rhône-Alpes, France

Public forecast

Using degrees Celsius for public forecast. Weather courtesy of forecast.io.

Closest aviation weather report (METAR) to Centre de Secours de Courchevel Heliport

Closest report is Chambéry-Savoie Airport, 34.4 nm (63.7 km) WNW. Retrieved 2020/01/27 17:30 UTC (25 minutes ago):

LFLB 271730Z AUTO 30003KT 260V350 9999 -RA FEW015 OVC050 07/05 Q1014 TEMPO RA

Closest aviation forecast (TAF) to Centre de Secours de Courchevel Heliport

Closest forecast is Chambéry-Savoie Airport, 34.4 nm (63.7 km) WNW. Retrieved 2020/01/27 12:21 UTC (6 hours ago):

TAF LFLB 271100Z 2712/2812 20006KT CAVOK TEMPO 2717/2812 20015G25KT RA SCT020TCU OVC030 PROB40 TEMPO 2803/2809 20020G30KT